createdAt,value
2018-07-26T00:00:42.429Z,0.00
2018-07-26T00:01:42.390Z,0.00
2018-07-26T00:02:42.346Z,0.00
2018-07-26T00:03:42.334Z,0.00
2018-07-26T00:04:42.294Z,0.00
2018-07-26T00:05:42.221Z,0.00
2018-07-26T00:06:42.219Z,0.00
2018-07-26T00:07:42.134Z,0.00
2018-07-26T00:08:42.095Z,0.00
2018-07-26T00:09:42.052Z,0.00
2018-07-26T00:10:42.043Z,0.00
2018-07-26T00:11:41.965Z,0.00
2018-07-26T00:12:41.923Z,0.00
2018-07-26T00:13:41.918Z,0.00
2018-07-26T00:14:41.874Z,0.00
2018-07-26T00:15:41.799Z,0.00
2018-07-26T00:16:41.790Z,0.00
2018-07-26T00:17:41.714Z,0.00
2018-07-26T00:18:41.707Z,0.00
2018-07-26T00:19:41.667Z,0.00
2018-07-26T00:20:41.640Z,0.00
2018-07-26T00:21:41.598Z,0.00
2018-07-26T00:22:41.506Z,0.00
2018-07-26T00:23:41.462Z,0.00
2018-07-26T00:24:41.419Z,0.00
2018-07-26T00:25:41.409Z,0.00
2018-07-26T00:26:41.334Z,0.00
2018-07-26T00:27:41.381Z,0.00
2018-07-26T00:28:41.249Z,0.00
2018-07-26T00:29:41.208Z,0.00
2018-07-26T00:30:41.199Z,0.00
2018-07-26T00:31:41.127Z,0.00
2018-07-26T00:32:41.082Z,0.00
2018-07-26T00:33:41.040Z,0.00
2018-07-26T00:34:40.998Z,0.00
2018-07-26T00:35:40.995Z,0.00
2018-07-26T00:36:40.914Z,0.00
2018-07-26T00:37:40.871Z,0.00
2018-07-26T00:38:40.829Z,0.00
2018-07-26T00:39:40.790Z,0.00
2018-07-26T00:40:40.776Z,0.00
2018-07-26T00:41:40.705Z,0.00
2018-07-26T00:42:40.657Z,0.00
2018-07-26T00:43:40.620Z,0.00
2018-07-26T00:44:40.614Z,0.00
2018-07-26T00:45:40.561Z,0.00
2018-07-26T00:46:40.491Z,0.00
2018-07-26T00:47:40.451Z,0.00
2018-07-26T00:48:40.436Z,0.00
2018-07-26T00:49:40.362Z,0.00
2018-07-26T00:50:40.355Z,0.00
2018-07-26T00:51:40.280Z,0.00
2018-07-26T00:52:40.238Z,0.00
2018-07-26T00:53:40.190Z,0.00
2018-07-26T00:54:40.153Z,0.00
2018-07-26T00:55:40.145Z,0.00
2018-07-26T00:56:40.100Z,0.00
2018-07-26T00:57:40.023Z,0.00
2018-07-26T00:58:39.982Z,0.00
2018-07-26T00:59:39.940Z,0.00
2018-07-26T01:00:39.897Z,0.00
2018-07-26T01:01:39.887Z,0.00
2018-07-26T01:02:39.812Z,0.00
2018-07-26T01:03:39.769Z,0.00
2018-07-26T01:04:39.728Z,0.00
2018-07-26T01:05:39.690Z,0.00
2018-07-26T01:06:39.676Z,0.00
2018-07-26T01:07:39.633Z,0.00
2018-07-26T01:08:39.561Z,0.00
2018-07-26T01:09:39.535Z,0.00
2018-07-26T01:10:39.472Z,0.00
2018-07-26T01:11:39.472Z,0.00
2018-07-26T01:12:39.387Z,0.00
2018-07-26T01:13:39.345Z,0.00
2018-07-26T01:14:39.306Z,0.00
2018-07-26T01:15:39.260Z,0.00
2018-07-26T01:16:39.250Z,0.00
2018-07-26T01:17:39.208Z,0.00
2018-07-26T01:18:39.132Z,0.00
2018-07-26T01:19:39.089Z,0.00
2018-07-26T01:20:39.046Z,0.00
2018-07-26T01:21:39.008Z,0.00
2018-07-26T01:22:39.007Z,0.00
2018-07-26T01:23:38.922Z,0.00
2018-07-26T01:24:38.875Z,0.00
2018-07-26T01:25:38.834Z,0.00
2018-07-26T01:26:38.793Z,0.00
2018-07-26T01:27:38.784Z,0.00
2018-07-26T01:28:38.706Z,0.00
2018-07-26T01:29:38.663Z,0.00
2018-07-26T01:30:38.620Z,0.00
2018-07-26T01:31:38.610Z,0.00
2018-07-26T01:32:38.533Z,0.00
2018-07-26T01:33:38.491Z,0.00
2018-07-26T01:34:38.479Z,0.00
2018-07-26T01:35:38.406Z,0.00
2018-07-26T01:36:38.362Z,0.00
2018-07-26T01:37:38.319Z,0.00
2018-07-26T01:38:38.276Z,0.00
2018-07-26T01:39:38.277Z,0.00
2018-07-26T01:40:38.196Z,0.00
2018-07-26T01:41:38.147Z,0.00
2018-07-26T01:42:38.108Z,0.00
2018-07-26T01:43:38.096Z,0.00
2018-07-26T01:44:38.053Z,0.00
2018-07-26T01:45:37.979Z,0.00
2018-07-26T01:46:37.934Z,0.00
2018-07-26T01:47:37.898Z,0.00
2018-07-26T01:48:37.853Z,0.00
2018-07-26T01:49:37.838Z,0.00
2018-07-26T01:50:37.760Z,0.00
2018-07-26T01:51:37.720Z,0.00
2018-07-26T01:52:37.676Z,0.00
2018-07-26T01:53:37.633Z,0.00
2018-07-26T01:54:37.621Z,0.00
2018-07-26T01:55:37.590Z,0.00
2018-07-26T01:56:37.506Z,0.00
2018-07-26T01:57:37.461Z,0.00
2018-07-26T01:58:37.421Z,0.00
2018-07-26T01:59:37.384Z,0.00
2018-07-26T02:00:37.370Z,0.00
2018-07-26T02:01:37.305Z,0.00
2018-07-26T02:02:37.251Z,0.00
2018-07-26T02:03:37.209Z,0.00
2018-07-26T02:04:37.196Z,0.00
2018-07-26T02:05:37.121Z,0.00
2018-07-26T02:06:37.077Z,0.00
2018-07-26T02:07:37.035Z,0.00
2018-07-26T02:08:37.031Z,0.00
2018-07-26T02:09:36.949Z,0.00
2018-07-26T02:10:36.906Z,0.00
2018-07-26T02:11:36.900Z,0.00
2018-07-26T02:12:36.820Z,0.00
2018-07-26T02:13:36.783Z,0.00
2018-07-26T02:14:36.738Z,0.00
2018-07-26T02:15:36.693Z,0.00
2018-07-26T02:16:36.679Z,0.00
2018-07-26T02:17:36.644Z,0.00
2018-07-26T02:18:36.570Z,0.00
2018-07-26T02:19:36.522Z,0.00
2018-07-26T02:20:36.477Z,0.00
2018-07-26T02:21:36.465Z,0.00
2018-07-26T02:22:36.423Z,0.00
2018-07-26T02:23:36.351Z,0.00
2018-07-26T02:24:36.304Z,0.00
2018-07-26T02:25:36.261Z,0.00
2018-07-26T02:26:36.222Z,0.00
2018-07-26T02:27:36.210Z,0.00
2018-07-26T02:28:36.133Z,0.00
2018-07-26T02:29:36.123Z,0.00
2018-07-26T02:30:36.051Z,0.00
2018-07-26T02:31:36.006Z,0.00
2018-07-26T02:32:35.969Z,0.00
2018-07-26T02:33:35.957Z,0.00
2018-07-26T02:34:35.879Z,0.00
2018-07-26T02:35:35.835Z,0.00
2018-07-26T02:36:35.791Z,0.00
2018-07-26T02:37:35.750Z,0.00
2018-07-26T02:38:35.742Z,0.00
2018-07-26T02:39:35.662Z,0.00
2018-07-26T02:40:35.631Z,0.00
2018-07-26T02:41:35.590Z,0.00
2018-07-26T02:42:35.532Z,0.00
2018-07-26T02:43:35.522Z,0.00
2018-07-26T02:44:35.446Z,0.00
2018-07-26T02:45:35.407Z,0.00
2018-07-26T02:46:35.394Z,0.00
2018-07-26T02:47:35.319Z,0.00
2018-07-26T02:48:35.274Z,0.00
2018-07-26T02:49:35.263Z,0.00
2018-07-26T02:50:35.186Z,0.00
2018-07-26T02:51:35.145Z,0.00
2018-07-26T02:52:35.106Z,0.00
2018-07-26T02:53:35.059Z,0.00
2018-07-26T02:54:35.050Z,0.00
2018-07-26T02:55:35.008Z,0.00
2018-07-26T02:56:34.927Z,0.00
2018-07-26T02:57:34.887Z,0.00
2018-07-26T02:58:34.874Z,0.00
2018-07-26T02:59:34.800Z,0.00
2018-07-26T03:00:34.786Z,0.00
2018-07-26T03:01:34.715Z,0.00
2018-07-26T03:02:34.669Z,0.00
2018-07-26T03:03:34.627Z,0.00
2018-07-26T03:04:34.589Z,0.00
2018-07-26T03:05:34.579Z,0.00
2018-07-26T03:06:34.501Z,0.00
2018-07-26T03:07:34.486Z,0.00
2018-07-26T03:08:34.440Z,0.00
2018-07-26T03:09:34.370Z,0.00
2018-07-26T03:10:34.327Z,0.00
2018-07-26T03:11:34.280Z,0.00
2018-07-26T03:12:34.241Z,0.00
2018-07-26T03:13:34.225Z,0.00
2018-07-26T03:14:34.150Z,0.00
2018-07-26T03:15:34.108Z,0.00
2018-07-26T03:16:34.061Z,0.00
2018-07-26T03:17:34.017Z,0.00
2018-07-26T03:18:34.012Z,0.00
2018-07-26T03:19:33.937Z,0.00
2018-07-26T03:20:33.887Z,0.00
2018-07-26T03:21:33.845Z,0.00
2018-07-26T03:22:33.805Z,0.00
2018-07-26T03:23:33.806Z,0.00
2018-07-26T03:24:33.722Z,0.00
2018-07-26T03:25:33.668Z,0.00
2018-07-26T03:26:33.629Z,0.00
2018-07-26T03:27:33.583Z,0.00
2018-07-26T03:28:33.572Z,0.00
2018-07-26T03:29:33.493Z,0.00
2018-07-26T03:30:33.462Z,0.00
2018-07-26T03:31:33.412Z,0.00
2018-07-26T03:32:33.366Z,0.00
2018-07-26T03:33:33.357Z,0.00
2018-07-26T03:34:33.280Z,0.00
2018-07-26T03:35:33.237Z,0.00
2018-07-26T03:36:33.220Z,0.00
2018-07-26T03:37:33.148Z,0.00
2018-07-26T03:38:33.140Z,0.00
2018-07-26T03:39:33.062Z,0.00
2018-07-26T03:40:33.018Z,0.00
2018-07-26T03:41:32.983Z,5.63
2018-07-26T03:42:32.933Z,5.63
2018-07-26T03:43:32.947Z,5.63
2018-07-26T03:44:32.845Z,5.63
2018-07-26T03:45:32.832Z,5.63
2018-07-26T03:46:32.755Z,5.63
2018-07-26T03:47:32.712Z,5.63
2018-07-26T03:48:32.670Z,5.63
2018-07-26T03:49:32.628Z,5.63
2018-07-26T03:50:32.615Z,5.63
2018-07-26T03:51:32.540Z,5.63
2018-07-26T03:52:32.497Z,11.25
2018-07-26T03:53:32.484Z,11.25
2018-07-26T03:54:32.409Z,11.25
2018-07-26T03:55:32.397Z,11.25
2018-07-26T03:56:32.322Z,11.25
2018-07-26T03:57:32.280Z,11.25
2018-07-26T03:58:32.267Z,11.25
2018-07-26T03:59:32.191Z,11.25
2018-07-26T04:00:32.151Z,11.25
2018-07-26T04:01:32.106Z,16.88
2018-07-26T04:02:32.104Z,16.88
2018-07-26T04:03:32.019Z,16.88
2018-07-26T04:04:31.975Z,16.88
2018-07-26T04:05:32.000Z,16.88
2018-07-26T04:06:31.888Z,16.88
2018-07-26T04:07:31.881Z,16.88
2018-07-26T04:08:31.858Z,16.88
2018-07-26T04:09:31.759Z,22.50
2018-07-26T04:10:31.716Z,22.50
2018-07-26T04:11:31.672Z,22.50
2018-07-26T04:12:31.629Z,22.50
2018-07-26T04:13:31.615Z,22.50
2018-07-26T04:14:31.542Z,22.50
2018-07-26T04:15:31.500Z,22.50
2018-07-26T04:16:31.455Z,22.50
2018-07-26T04:17:31.447Z,28.13
2018-07-26T04:18:31.367Z,28.13
2018-07-26T04:19:31.360Z,28.13
2018-07-26T04:20:31.282Z,28.13
2018-07-26T04:21:31.241Z,28.13
2018-07-26T04:22:31.197Z,28.13
2018-07-26T04:23:31.155Z,28.13
2018-07-26T04:24:31.143Z,33.75
2018-07-26T04:25:31.117Z,33.75
2018-07-26T04:26:31.021Z,33.75
2018-07-26T04:27:30.979Z,33.75
2018-07-26T04:28:30.935Z,33.75
2018-07-26T04:29:30.891Z,33.75
2018-07-26T04:30:30.882Z,33.75
2018-07-26T04:31:30.828Z,33.75
2018-07-26T04:32:30.792Z,39.38
2018-07-26T04:33:30.720Z,39.38
2018-07-26T04:34:30.677Z,39.38
2018-07-26T04:35:30.670Z,39.38
2018-07-26T04:36:30.588Z,39.38
2018-07-26T04:37:30.576Z,39.38
2018-07-26T04:38:30.504Z,39.38
2018-07-26T04:39:30.502Z,39.38
2018-07-26T04:40:30.419Z,39.38
2018-07-26T04:41:30.374Z,45.00
2018-07-26T04:42:30.330Z,45.00
2018-07-26T04:43:30.292Z,45.00
2018-07-26T04:44:30.291Z,45.00
2018-07-26T04:45:30.214Z,45.00
2018-07-26T04:46:30.166Z,45.00
2018-07-26T04:47:30.149Z,45.00
2018-07-26T04:48:30.072Z,45.00
2018-07-26T04:49:30.028Z,50.63
2018-07-26T04:50:29.987Z,50.63
2018-07-26T04:51:29.973Z,50.63
2018-07-26T04:52:29.898Z,50.63
2018-07-26T04:53:29.888Z,50.63
2018-07-26T04:54:29.817Z,50.63
2018-07-26T04:55:29.768Z,50.63
2018-07-26T04:56:29.729Z,50.63
2018-07-26T04:57:29.714Z,50.63
2018-07-26T04:58:29.640Z,56.25
2018-07-26T04:59:29.604Z,56.25
2018-07-26T05:00:29.557Z,56.25
2018-07-26T05:01:29.551Z,56.25
2018-07-26T05:02:29.472Z,56.25
2018-07-26T05:03:29.424Z,56.25
2018-07-26T05:04:29.393Z,56.25
2018-07-26T05:05:29.374Z,56.25
2018-07-26T05:06:29.298Z,56.25
2018-07-26T05:07:29.254Z,56.25
2018-07-26T05:08:29.212Z,61.88
2018-07-26T05:09:29.202Z,61.88
2018-07-26T05:10:29.143Z,61.88
2018-07-26T05:11:29.084Z,61.88
2018-07-26T05:12:29.074Z,61.88
2018-07-26T05:13:28.999Z,61.88
2018-07-26T05:14:28.954Z,61.88
2018-07-26T05:15:28.917Z,61.88
2018-07-26T05:16:28.906Z,61.88
2018-07-26T05:17:28.833Z,67.50
2018-07-26T05:18:28.845Z,67.50
2018-07-26T05:19:28.753Z,67.50
2018-07-26T05:20:28.702Z,67.50
2018-07-26T05:21:28.698Z,67.50
2018-07-26T05:22:28.645Z,67.50
2018-07-26T05:23:28.606Z,67.50
2018-07-26T05:24:28.529Z,67.50
2018-07-26T05:25:28.492Z,67.50
2018-07-26T05:26:28.444Z,73.13
2018-07-26T05:27:28.402Z,73.13
2018-07-26T05:28:28.392Z,73.13
2018-07-26T05:29:28.316Z,73.13
2018-07-26T05:30:28.273Z,73.13
2018-07-26T05:31:28.231Z,73.13
2018-07-26T05:32:28.188Z,73.13
2018-07-26T05:33:28.175Z,73.13
2018-07-26T05:34:28.137Z,78.75
2018-07-26T05:35:28.064Z,78.75
2018-07-26T05:36:28.018Z,78.75
2018-07-26T05:37:28.015Z,78.75
2018-07-26T05:38:27.932Z,78.75
2018-07-26T05:39:27.890Z,78.75
2018-07-26T05:40:27.844Z,78.75
2018-07-26T05:41:27.801Z,78.75
2018-07-26T05:42:27.795Z,84.38
2018-07-26T05:43:27.823Z,84.38
2018-07-26T05:44:27.675Z,84.38
2018-07-26T05:45:27.665Z,84.38
2018-07-26T05:46:27.623Z,84.38
2018-07-26T05:47:27.547Z,84.38
2018-07-26T05:48:27.504Z,84.38
2018-07-26T05:49:27.468Z,84.38
2018-07-26T05:50:27.453Z,90.00
2018-07-26T05:51:27.380Z,90.00
2018-07-26T05:52:27.340Z,90.00
2018-07-26T05:53:27.391Z,90.00
2018-07-26T05:54:27.247Z,90.00
2018-07-26T05:55:27.208Z,90.00
2018-07-26T05:56:27.164Z,90.00
2018-07-26T05:57:27.125Z,90.00
2018-07-26T05:58:27.114Z,90.00
2018-07-26T05:59:27.041Z,90.00
2018-07-26T06:00:26.995Z,95.63
2018-07-26T06:01:26.986Z,95.63
2018-07-26T06:02:26.907Z,95.63
2018-07-26T06:03:26.865Z,95.63
2018-07-26T06:04:26.828Z,95.63
2018-07-26T06:05:26.783Z,95.63
2018-07-26T06:06:26.769Z,95.63
2018-07-26T06:07:26.699Z,95.63
2018-07-26T06:08:26.657Z,95.63
2018-07-26T06:09:26.614Z,95.63
2018-07-26T06:10:26.570Z,95.63
2018-07-26T06:11:26.576Z,101.25
2018-07-26T06:12:26.487Z,101.25
2018-07-26T06:13:26.447Z,101.25
2018-07-26T06:14:26.400Z,101.25
2018-07-26T06:15:26.359Z,101.25
2018-07-26T06:16:26.358Z,101.25
2018-07-26T06:17:26.314Z,106.88
2018-07-26T06:18:26.231Z,106.88
2018-07-26T06:19:26.219Z,106.88
2018-07-26T06:20:26.149Z,106.88
2018-07-26T06:21:26.105Z,106.88
2018-07-26T06:22:26.100Z,106.88
2018-07-26T06:23:26.021Z,112.50
2018-07-26T06:24:25.977Z,112.50
2018-07-26T06:25:25.934Z,112.50
2018-07-26T06:26:25.895Z,112.50
2018-07-26T06:27:25.886Z,112.50
2018-07-26T06:28:25.808Z,112.50
2018-07-26T06:29:25.767Z,112.50
2018-07-26T06:30:25.727Z,118.13
2018-07-26T06:31:25.720Z,118.13
2018-07-26T06:32:25.642Z,118.13
2018-07-26T06:33:25.652Z,118.13
2018-07-26T06:34:25.560Z,118.13
2018-07-26T06:35:25.516Z,118.13
2018-07-26T06:36:25.506Z,118.13
2018-07-26T06:37:25.432Z,123.75
2018-07-26T06:38:25.423Z,123.75
2018-07-26T06:39:25.400Z,123.75
2018-07-26T06:40:25.310Z,123.75
2018-07-26T06:41:25.260Z,123.75
2018-07-26T06:42:25.266Z,123.75
2018-07-26T06:43:25.184Z,123.75
2018-07-26T06:44:25.184Z,129.38
2018-07-26T06:45:25.134Z,129.38
2018-07-26T06:46:25.054Z,129.38
2018-07-26T06:47:25.011Z,129.38
2018-07-26T06:48:24.969Z,129.38
2018-07-26T06:49:24.927Z,129.38
2018-07-26T06:50:24.917Z,129.38
2018-07-26T06:51:24.844Z,135.00
2018-07-26T06:52:24.836Z,135.00
2018-07-26T06:53:24.763Z,135.00
2018-07-26T06:54:24.721Z,135.00
2018-07-26T06:55:24.675Z,135.00
2018-07-26T06:56:24.670Z,135.00
2018-07-26T06:57:24.591Z,135.00
2018-07-26T06:58:24.583Z,135.00
2018-07-26T06:59:24.506Z,140.63
2018-07-26T07:00:24.468Z,140.63
2018-07-26T07:01:24.472Z,140.63
2018-07-26T07:02:24.382Z,140.63
2018-07-26T07:03:24.341Z,140.63
2018-07-26T07:04:24.302Z,140.63
2018-07-26T07:05:24.258Z,140.63
2018-07-26T07:06:24.249Z,140.63
2018-07-26T07:07:24.174Z,140.63
2018-07-26T07:08:24.133Z,146.25
2018-07-26T07:09:24.093Z,146.25
2018-07-26T07:10:24.084Z,146.25
2018-07-26T07:11:24.008Z,140.63
2018-07-26T07:12:23.967Z,140.63
2018-07-26T07:13:23.927Z,140.63
2018-07-26T07:14:23.882Z,146.25
2018-07-26T07:15:23.873Z,146.25
2018-07-26T07:16:23.832Z,146.25
2018-07-26T07:17:23.759Z,146.25
2018-07-26T07:18:23.717Z,146.25
2018-07-26T07:19:23.684Z,146.25
2018-07-26T07:20:23.713Z,146.25
2018-07-26T07:21:23.598Z,151.88
2018-07-26T07:22:23.591Z,151.88
2018-07-26T07:23:23.509Z,151.88
2018-07-26T07:24:23.468Z,151.88
2018-07-26T07:25:23.428Z,151.88
2018-07-26T07:26:23.389Z,151.88
2018-07-26T07:27:23.378Z,157.50
2018-07-26T07:28:23.305Z,157.50
2018-07-26T07:29:23.264Z,157.50
2018-07-26T07:30:23.252Z,157.50
2018-07-26T07:31:23.213Z,157.50
2018-07-26T07:32:23.140Z,157.50
2018-07-26T07:33:23.134Z,157.50
2018-07-26T07:34:23.056Z,157.50
2018-07-26T07:35:23.056Z,157.50
2018-07-26T07:36:22.975Z,163.13
2018-07-26T07:37:22.957Z,163.13
2018-07-26T07:38:22.894Z,163.13
2018-07-26T07:39:22.851Z,163.13
2018-07-26T07:40:22.842Z,163.13
2018-07-26T07:41:22.772Z,163.13
2018-07-26T07:42:22.727Z,163.13
2018-07-26T07:43:22.715Z,163.13
2018-07-26T07:44:22.650Z,168.75
2018-07-26T07:45:22.640Z,168.75
2018-07-26T07:46:22.573Z,168.75
2018-07-26T07:47:22.562Z,168.75
2018-07-26T07:48:22.486Z,168.75
2018-07-26T07:49:22.475Z,174.38
2018-07-26T07:50:22.402Z,174.38
2018-07-26T07:51:22.362Z,174.38
2018-07-26T07:52:22.319Z,174.38
2018-07-26T07:53:22.280Z,174.38
2018-07-26T07:54:22.365Z,180.00
2018-07-26T07:55:22.198Z,180.00
2018-07-26T07:56:22.159Z,180.00
2018-07-26T07:57:22.116Z,180.00
2018-07-26T07:58:22.077Z,180.00
2018-07-26T07:59:22.073Z,180.00
2018-07-26T08:00:22.000Z,174.38
2018-07-26T08:01:21.975Z,174.38
2018-07-26T08:02:21.916Z,180.00
2018-07-26T08:03:21.905Z,185.63
2018-07-26T08:04:21.831Z,180.00
2018-07-26T08:05:21.832Z,185.63
2018-07-26T08:06:21.755Z,185.63
2018-07-26T08:07:21.746Z,185.63
2018-07-26T08:08:21.668Z,185.63
2018-07-26T08:09:21.630Z,191.25
2018-07-26T08:10:21.591Z,191.25
2018-07-26T08:11:21.602Z,191.25
2018-07-26T08:12:21.509Z,191.25
2018-07-26T08:13:21.469Z,196.88
2018-07-26T08:14:21.430Z,196.88
2018-07-26T08:15:21.390Z,202.50
2018-07-26T08:16:21.379Z,202.50
2018-07-26T08:17:21.308Z,208.13
2018-07-26T08:18:21.271Z,208.13
2018-07-26T08:19:21.232Z,213.75
2018-07-26T08:20:21.225Z,208.13
2018-07-26T08:21:21.197Z,213.75
2018-07-26T08:22:21.149Z,213.75
2018-07-26T08:23:21.070Z,219.38
2018-07-26T08:24:21.031Z,219.38
2018-07-26T08:25:20.989Z,225.00
2018-07-26T08:26:20.981Z,225.00
2018-07-26T08:27:20.911Z,219.38
2018-07-26T08:28:20.905Z,202.50
2018-07-26T08:29:20.897Z,236.25
2018-07-26T08:30:20.823Z,241.88
2018-07-26T08:31:20.784Z,241.88
2018-07-26T08:32:20.712Z,247.50
2018-07-26T08:33:20.674Z,247.50
2018-07-26T08:34:20.634Z,253.13
2018-07-26T08:35:20.592Z,253.13
2018-07-26T08:36:20.585Z,258.75
2018-07-26T08:37:20.515Z,258.75
2018-07-26T08:38:20.478Z,258.75
2018-07-26T08:39:20.475Z,264.38
2018-07-26T08:40:20.397Z,264.38
2018-07-26T08:41:20.356Z,270.00
2018-07-26T08:42:20.348Z,275.63
2018-07-26T08:43:20.276Z,275.63
2018-07-26T08:44:20.244Z,275.63
2018-07-26T08:45:20.202Z,275.63
2018-07-26T08:46:20.249Z,275.63
2018-07-26T08:47:20.634Z,275.63
2018-07-26T08:48:20.127Z,275.63
2018-07-26T08:49:20.050Z,281.25
2018-07-26T08:50:20.008Z,286.88
2018-07-26T08:51:20.008Z,286.88
2018-07-26T08:52:19.999Z,281.25
2018-07-26T08:53:19.895Z,286.88
2018-07-26T08:54:19.874Z,286.88
2018-07-26T08:55:19.817Z,292.50
2018-07-26T08:56:19.786Z,292.50
2018-07-26T08:57:19.774Z,292.50
2018-07-26T08:58:19.739Z,253.13
2018-07-26T08:59:19.705Z,298.13
2018-07-26T09:00:19.626Z,292.50
2018-07-26T09:01:19.642Z,213.75
2018-07-26T09:02:19.551Z,292.50
2018-07-26T09:03:19.514Z,298.13
2018-07-26T09:04:19.476Z,303.75
2018-07-26T09:05:19.438Z,275.63
2018-07-26T09:06:19.435Z,163.13
2018-07-26T09:07:19.370Z,298.13
2018-07-26T09:08:19.326Z,213.75
2018-07-26T09:09:19.288Z,303.75
2018-07-26T09:10:19.284Z,303.75
2018-07-26T09:11:19.250Z,303.75
2018-07-26T09:12:19.210Z,303.75
2018-07-26T09:13:19.185Z,303.75
2018-07-26T09:14:19.105Z,303.75
2018-07-26T09:15:19.069Z,303.75
2018-07-26T09:16:19.029Z,320.63
2018-07-26T09:17:19.036Z,309.38
2018-07-26T09:18:18.957Z,309.38
2018-07-26T09:19:18.921Z,309.38
2018-07-26T09:20:18.885Z,309.38
2018-07-26T09:21:18.848Z,309.38
2018-07-26T09:22:18.844Z,315.00
2018-07-26T09:23:18.775Z,298.13
2018-07-26T09:24:19.204Z,247.50
2018-07-26T09:25:18.702Z,157.50
2018-07-26T09:26:18.713Z,258.75
2018-07-26T09:27:18.629Z,309.38
2018-07-26T09:28:18.590Z,309.38
2018-07-26T09:29:18.589Z,309.38
2018-07-26T09:30:18.518Z,196.88
2018-07-26T09:31:18.481Z,286.88
2018-07-26T09:32:18.449Z,315.00
2018-07-26T09:33:18.459Z,315.00
2018-07-26T09:34:18.406Z,315.00
2018-07-26T09:35:18.340Z,315.00
2018-07-26T09:36:18.303Z,320.63
2018-07-26T09:37:18.297Z,315.00
2018-07-26T09:38:18.229Z,315.00
2018-07-26T09:39:18.194Z,315.00
2018-07-26T09:40:18.160Z,320.63
2018-07-26T09:41:18.122Z,326.25
2018-07-26T09:42:18.128Z,320.63
2018-07-26T09:43:18.052Z,320.63
2018-07-26T09:44:18.016Z,326.25
2018-07-26T09:45:17.982Z,326.25
2018-07-26T09:46:17.945Z,320.63
2018-07-26T09:47:17.953Z,320.63
2018-07-26T09:48:17.880Z,326.25
2018-07-26T09:49:17.840Z,320.63
2018-07-26T09:50:17.838Z,320.63
2018-07-26T09:51:17.797Z,320.63
2018-07-26T09:52:17.732Z,315.00
2018-07-26T09:53:17.699Z,320.63
2018-07-26T09:54:17.661Z,326.25
2018-07-26T09:55:17.627Z,326.25
2018-07-26T09:56:17.622Z,326.25
2018-07-26T09:57:17.561Z,309.38
2018-07-26T09:58:17.522Z,326.25
2018-07-26T09:59:17.488Z,326.25
2018-07-26T10:00:17.497Z,326.25
2018-07-26T10:01:17.418Z,331.88
2018-07-26T10:02:17.412Z,331.88
2018-07-26T10:03:17.382Z,331.88
2018-07-26T10:04:17.315Z,331.88
2018-07-26T10:05:17.282Z,331.88
2018-07-26T10:06:17.246Z,326.25
2018-07-26T10:07:17.244Z,326.25
2018-07-26T10:08:17.211Z,331.88
2018-07-26T10:09:17.143Z,331.88
2018-07-26T10:10:17.134Z,331.88
2018-07-26T10:11:17.072Z,331.88
2018-07-26T10:12:17.085Z,331.88
2018-07-26T10:13:17.003Z,331.88
2018-07-26T10:14:16.973Z,331.88
2018-07-26T10:15:16.937Z,337.50
2018-07-26T10:16:16.902Z,331.88
2018-07-26T10:17:16.898Z,337.50
2018-07-26T10:18:16.834Z,337.50
2018-07-26T10:19:16.800Z,343.13
2018-07-26T10:20:16.864Z,337.50
2018-07-26T10:21:16.729Z,343.13
2018-07-26T10:22:16.731Z,315.00
2018-07-26T10:23:16.665Z,343.13
2018-07-26T10:24:16.632Z,174.38
2018-07-26T10:25:16.628Z,343.13
2018-07-26T10:26:16.567Z,343.13
2018-07-26T10:27:16.532Z,348.75
2018-07-26T10:28:16.494Z,348.75
2018-07-26T10:29:16.508Z,343.13
2018-07-26T10:30:16.430Z,343.13
2018-07-26T10:31:16.394Z,348.75
2018-07-26T10:32:16.362Z,343.13
2018-07-26T10:33:16.328Z,343.13
2018-07-26T10:34:16.330Z,337.50
2018-07-26T10:35:16.261Z,337.50
2018-07-26T10:36:16.231Z,337.50
2018-07-26T10:37:16.193Z,337.50
2018-07-26T10:38:16.159Z,343.13
2018-07-26T10:39:16.161Z,343.13
2018-07-26T10:40:16.097Z,343.13
2018-07-26T10:41:16.062Z,343.13
2018-07-26T10:42:16.034Z,348.75
2018-07-26T10:43:15.995Z,275.63
2018-07-26T10:44:15.993Z,180.00
2018-07-26T10:45:15.927Z,343.13
2018-07-26T10:46:15.896Z,337.50
2018-07-26T10:47:15.861Z,331.88
2018-07-26T10:48:15.826Z,331.88
2018-07-26T10:49:15.826Z,331.88
2018-07-26T10:50:15.763Z,337.50
2018-07-26T10:51:15.729Z,348.75
2018-07-26T10:52:15.694Z,343.13
2018-07-26T10:53:15.662Z,343.13
2018-07-26T10:54:15.662Z,348.75
2018-07-26T10:55:15.597Z,348.75
2018-07-26T10:56:15.567Z,354.38
2018-07-26T10:57:15.530Z,320.63
2018-07-26T10:58:15.543Z,275.63
2018-07-26T10:59:15.471Z,343.13
2018-07-26T11:00:15.474Z,343.13
2018-07-26T11:01:15.430Z,354.38
2018-07-26T11:02:15.368Z,337.50
2018-07-26T11:03:15.334Z,337.50
2018-07-26T11:04:15.300Z,337.50
2018-07-26T11:05:15.264Z,337.50
2018-07-26T11:06:15.267Z,337.50
2018-07-26T11:07:15.210Z,343.13
2018-07-26T11:08:15.172Z,343.13
2018-07-26T11:09:15.136Z,348.75
2018-07-26T11:10:15.103Z,348.75
2018-07-26T11:11:15.105Z,354.38
2018-07-26T11:12:15.089Z,343.13
2018-07-26T11:13:15.011Z,343.13
2018-07-26T11:14:14.976Z,343.13
2018-07-26T11:15:14.992Z,247.50
2018-07-26T11:16:14.908Z,230.63
2018-07-26T11:17:14.910Z,348.75
2018-07-26T11:18:14.847Z,348.75
2018-07-26T11:19:14.847Z,348.75
2018-07-26T11:20:14.820Z,348.75
2018-07-26T11:21:14.748Z,348.75
2018-07-26T11:22:14.719Z,348.75
2018-07-26T11:23:14.681Z,348.75
2018-07-26T11:24:14.706Z,348.75
2018-07-26T11:25:14.655Z,354.38
2018-07-26T11:26:14.584Z,354.38
2018-07-26T11:27:14.556Z,163.13
2018-07-26T11:28:14.528Z,343.13
2018-07-26T11:29:14.488Z,354.38
2018-07-26T11:30:14.494Z,354.38
2018-07-26T11:31:14.423Z,354.38
2018-07-26T11:32:14.395Z,360.00
2018-07-26T11:33:14.363Z,360.00
2018-07-26T11:34:14.330Z,281.25
2018-07-26T11:35:14.326Z,185.63
2018-07-26T11:36:14.263Z,360.00
2018-07-26T11:37:14.262Z,365.63
2018-07-26T11:38:14.200Z,360.00
2018-07-26T11:39:14.168Z,360.00
2018-07-26T11:40:14.135Z,360.00
2018-07-26T11:41:14.100Z,354.38
2018-07-26T11:42:14.111Z,354.38
2018-07-26T11:43:14.040Z,354.38
2018-07-26T11:44:14.006Z,354.38
2018-07-26T11:45:13.972Z,354.38
2018-07-26T11:46:13.942Z,354.38
2018-07-26T11:47:13.944Z,354.38
2018-07-26T11:48:13.875Z,230.63
2018-07-26T11:49:13.870Z,343.13
2018-07-26T11:50:13.849Z,168.75
2018-07-26T11:51:13.787Z,208.13
2018-07-26T11:52:13.748Z,168.75
2018-07-26T11:53:13.717Z,360.00
2018-07-26T11:54:13.711Z,348.75
2018-07-26T11:55:13.692Z,360.00
2018-07-26T11:56:13.644Z,360.00
2018-07-26T11:57:13.591Z,354.38
2018-07-26T11:58:13.558Z,354.38
2018-07-26T11:59:13.526Z,360.00
2018-07-26T12:00:13.496Z,354.38
2018-07-26T12:01:13.486Z,354.38
2018-07-26T12:02:13.429Z,348.75
2018-07-26T12:03:13.397Z,343.13
2018-07-26T12:04:13.364Z,337.50
2018-07-26T12:05:13.332Z,343.13
2018-07-26T12:06:13.342Z,348.75
2018-07-26T12:07:13.271Z,354.38
2018-07-26T12:08:13.262Z,360.00
2018-07-26T12:09:13.203Z,360.00
2018-07-26T12:10:13.175Z,360.00
2018-07-26T12:11:13.179Z,360.00
2018-07-26T12:12:13.108Z,360.00
2018-07-26T12:13:13.084Z,365.63
2018-07-26T12:14:13.061Z,376.88
2018-07-26T12:15:13.011Z,382.50
2018-07-26T12:16:13.014Z,376.88
2018-07-26T12:17:12.948Z,376.88
2018-07-26T12:18:12.915Z,376.88
2018-07-26T12:19:12.888Z,196.88
2018-07-26T12:20:12.851Z,376.88
2018-07-26T12:21:12.857Z,196.88
2018-07-26T12:22:12.788Z,376.88
2018-07-26T12:23:12.782Z,376.88
2018-07-26T12:24:12.725Z,376.88
2018-07-26T12:25:12.724Z,371.25
2018-07-26T12:26:12.694Z,365.63
2018-07-26T12:27:12.718Z,354.38
2018-07-26T12:28:12.607Z,354.38
2018-07-26T12:29:12.564Z,360.00
2018-07-26T12:30:12.531Z,348.75
2018-07-26T12:31:12.499Z,354.38
2018-07-26T12:32:12.505Z,354.38
2018-07-26T12:33:12.468Z,354.38
2018-07-26T12:34:12.409Z,354.38
2018-07-26T12:35:12.372Z,354.38
2018-07-26T12:36:12.343Z,360.00
2018-07-26T12:37:12.311Z,365.63
2018-07-26T12:38:12.310Z,371.25
2018-07-26T12:39:12.246Z,371.25
2018-07-26T12:40:12.220Z,376.88
2018-07-26T12:41:12.188Z,371.25
2018-07-26T12:42:12.152Z,185.63
2018-07-26T12:43:12.151Z,286.88
2018-07-26T12:44:12.131Z,157.50
2018-07-26T12:45:12.060Z,151.88
2018-07-26T12:46:12.028Z,146.25
2018-07-26T12:47:11.998Z,140.63